sensor_id;sensor_type;location;lat;lon;timestamp;temperature;humidity
60242;SHT30;46103;52.076;113.488;2024-01-06T00:01:50;-21.57;65.61
60242;SHT30;46103;52.076;113.488;2024-01-06T00:04:54;-21.65;65.61
60242;SHT30;46103;52.076;113.488;2024-01-06T00:07:58;-21.64;65.41
60242;SHT30;46103;52.076;113.488;2024-01-06T00:11:01;-21.70;65.49
60242;SHT30;46103;52.076;113.488;2024-01-06T00:14:06;-21.71;65.49
60242;SHT30;46103;52.076;113.488;2024-01-06T00:17:19;-21.72;65.59
60242;SHT30;46103;52.076;113.488;2024-01-06T00:20:23;-21.79;65.13
60242;SHT30;46103;52.076;113.488;2024-01-06T00:23:26;-21.82;65.19
60242;SHT30;46103;52.076;113.488;2024-01-06T00:26:30;-21.89;65.54
60242;SHT30;46103;52.076;113.488;2024-01-06T00:29:34;-21.88;65.49
60242;SHT30;46103;52.076;113.488;2024-01-06T00:32:38;-21.88;65.31
60242;SHT30;46103;52.076;113.488;2024-01-06T00:35:41;-22.01;64.82
60242;SHT30;46103;52.076;113.488;2024-01-06T00:38:45;-22.02;65.13
60242;SHT30;46103;52.076;113.488;2024-01-06T00:41:49;-22.02;65.51
60242;SHT30;46103;52.076;113.488;2024-01-06T00:44:52;-21.98;65.57
60242;SHT30;46103;52.076;113.488;2024-01-06T00:47:55;-22.01;65.64
60242;SHT30;46103;52.076;113.488;2024-01-06T00:50:58;-21.91;65.78
60242;SHT30;46103;52.076;113.488;2024-01-06T00:54:03;-21.95;65.53
60242;SHT30;46103;52.076;113.488;2024-01-06T00:57:06;-21.92;65.62
60242;SHT30;46103;52.076;113.488;2024-01-06T01:00:11;-21.82;65.37
60242;SHT30;46103;52.076;113.488;2024-01-06T01:03:18;-21.85;64.83
60242;SHT30;46103;52.076;113.488;2024-01-06T01:06:50;-21.79;64.73
60242;SHT30;46103;52.076;113.488;2024-01-06T01:09:53;-21.68;64.57
60242;SHT30;46103;52.076;113.488;2024-01-06T01:12:58;-21.75;64.24
60242;SHT30;46103;52.076;113.488;2024-01-06T01:16:07;-21.65;64.21
60242;SHT30;46103;52.076;113.488;2024-01-06T01:19:13;-21.50;64.17
60242;SHT30;46103;52.076;113.488;2024-01-06T01:22:18;-21.51;63.67
60242;SHT30;46103;52.076;113.488;2024-01-06T01:25:25;-21.47;63.25
60242;SHT30;46103;52.076;113.488;2024-01-06T01:28:30;-21.47;62.92
60242;SHT30;46103;52.076;113.488;2024-01-06T01:31:40;-21.47;62.78
60242;SHT30;46103;52.076;113.488;2024-01-06T01:34:51;-21.74;62.30
60242;SHT30;46103;52.076;113.488;2024-01-06T01:37:54;-21.77;62.75
60242;SHT30;46103;52.076;113.488;2024-01-06T01:40:57;-21.86;62.73
60242;SHT30;46103;52.076;113.488;2024-01-06T01:44:18;-21.67;63.20
60242;SHT30;46103;52.076;113.488;2024-01-06T01:47:28;-21.55;62.91
60242;SHT30;46103;52.076;113.488;2024-01-06T01:50:34;-21.54;62.38
60242;SHT30;46103;52.076;113.488;2024-01-06T01:56:53;-21.61;62.09
60242;SHT30;46103;52.076;113.488;2024-01-06T02:00:00;-21.55;62.50
60242;SHT30;46103;52.076;113.488;2024-01-06T02:03:25;-21.63;62.38
60242;SHT30;46103;52.076;113.488;2024-01-06T02:07:13;-21.58;62.50
60242;SHT30;46103;52.076;113.488;2024-01-06T02:10:20;-21.47;62.31
60242;SHT30;46103;52.076;113.488;2024-01-06T02:13:36;-21.46;61.73
60242;SHT30;46103;52.076;113.488;2024-01-06T02:16:44;-21.43;61.92
60242;SHT30;46103;52.076;113.488;2024-01-06T02:19:50;-21.40;61.50
60242;SHT30;46103;52.076;113.488;2024-01-06T02:22:56;-21.18;61.45
60242;SHT30;46103;52.076;113.488;2024-01-06T02:26:04;-21.22;60.59
60242;SHT30;46103;52.076;113.488;2024-01-06T02:29:10;-21.02;61.16
60242;SHT30;46103;52.076;113.488;2024-01-06T02:32:13;-20.68;60.90
60242;SHT30;46103;52.076;113.488;2024-01-06T02:35:17;-20.83;59.58
60242;SHT30;46103;52.076;113.488;2024-01-06T02:38:21;-20.77;59.93
60242;SHT30;46103;52.076;113.488;2024-01-06T02:41:25;-20.45;60.44
60242;SHT30;46103;52.076;113.488;2024-01-06T02:44:28;-20.19;59.79
60242;SHT30;46103;52.076;113.488;2024-01-06T02:47:32;-20.04;58.95
60242;SHT30;46103;52.076;113.488;2024-01-06T02:50:36;-19.80;58.43
60242;SHT30;46103;52.076;113.488;2024-01-06T02:53:40;-19.59;57.84
60242;SHT30;46103;52.076;113.488;2024-01-06T02:56:49;-19.40;57.25
60242;SHT30;46103;52.076;113.488;2024-01-06T03:00:14;-19.28;56.74
60242;SHT30;46103;52.076;113.488;2024-01-06T03:03:25;-19.18;56.21
60242;SHT30;46103;52.076;113.488;2024-01-06T03:06:54;-19.05;55.94
60242;SHT30;46103;52.076;113.488;2024-01-06T03:10:08;-18.88;55.27
60242;SHT30;46103;52.076;113.488;2024-01-06T03:13:14;-18.94;54.31
60242;SHT30;46103;52.076;113.488;2024-01-06T03:16:49;-18.88;54.36
60242;SHT30;46103;52.076;113.488;2024-01-06T03:23:46;-18.98;54.93
60242;SHT30;46103;52.076;113.488;2024-01-06T03:30:49;-18.84;53.14
60242;SHT30;46103;52.076;113.488;2024-01-06T03:33:53;-18.81;52.60
60242;SHT30;46103;52.076;113.488;2024-01-06T03:36:59;-18.81;52.13
60242;SHT30;46103;52.076;113.488;2024-01-06T03:40:05;-18.87;51.76
60242;SHT30;46103;52.076;113.488;2024-01-06T03:43:22;-18.81;51.88
60242;SHT30;46103;52.076;113.488;2024-01-06T03:46:26;-18.77;51.71
60242;SHT30;46103;52.076;113.488;2024-01-06T03:49:29;-18.69;51.56
60242;SHT30;46103;52.076;113.488;2024-01-06T03:52:33;-18.60;51.27
60242;SHT30;46103;52.076;113.488;2024-01-06T03:55:36;-18.57;50.64
60242;SHT30;46103;52.076;113.488;2024-01-06T03:58:40;-18.69;51.15
60242;SHT30;46103;52.076;113.488;2024-01-06T04:01:43;-18.67;51.32
60242;SHT30;46103;52.076;113.488;2024-01-06T04:04:48;-18.64;51.55
60242;SHT30;46103;52.076;113.488;2024-01-06T04:08:11;-18.63;51.76
60242;SHT30;46103;52.076;113.488;2024-01-06T04:11:38;-18.70;51.45
60242;SHT30;46103;52.076;113.488;2024-01-06T04:14:45;-18.81;51.71
60242;SHT30;46103;52.076;113.488;2024-01-06T04:17:54;-18.77;52.27
60242;SHT30;46103;52.076;113.488;2024-01-06T04:20:58;-18.79;52.14
60242;SHT30;46103;52.076;113.488;2024-01-06T04:24:01;-18.66;52.52
60242;SHT30;46103;52.076;113.488;2024-01-06T04:27:06;-18.76;52.76
60242;SHT30;46103;52.076;113.488;2024-01-06T04:30:13;-18.62;53.75
60242;SHT30;46103;52.076;113.488;2024-01-06T04:33:18;-18.41;53.59
60242;SHT30;46103;52.076;113.488;2024-01-06T04:36:24;-18.41;52.98
60242;SHT30;46103;52.076;113.488;2024-01-06T04:39:34;-18.35;53.32
60242;SHT30;46103;52.076;113.488;2024-01-06T04:42:39;-18.14;53.38
60242;SHT30;46103;52.076;113.488;2024-01-06T04:45:45;-17.85;53.03
60242;SHT30;46103;52.076;113.488;2024-01-06T04:48:59;-17.66;52.57
60242;SHT30;46103;52.076;113.488;2024-01-06T04:52:28;-17.52;52.21
60242;SHT30;46103;52.076;113.488;2024-01-06T04:55:33;-17.30;52.63
60242;SHT30;46103;52.076;113.488;2024-01-06T04:58:36;-17.10;52.15
60242;SHT30;46103;52.076;113.488;2024-01-06T05:01:40;-16.93;52.07
60242;SHT30;46103;52.076;113.488;2024-01-06T05:04:44;-16.79;51.30
60242;SHT30;46103;52.076;113.488;2024-01-06T05:07:48;-16.68;51.18
60242;SHT30;46103;52.076;113.488;2024-01-06T05:10:52;-16.52;50.99
60242;SHT30;46103;52.076;113.488;2024-01-06T05:13:57;-16.42;50.77
60242;SHT30;46103;52.076;113.488;2024-01-06T05:17:00;-16.25;50.56
60242;SHT30;46103;52.076;113.488;2024-01-06T05:20:44;-16.17;50.40
60242;SHT30;46103;52.076;113.488;2024-01-06T05:30:57;-15.96;50.16
60242;SHT30;46103;52.076;113.488;2024-01-06T05:34:16;-15.93;50.18
60242;SHT30;46103;52.076;113.488;2024-01-06T05:37:45;-16.00;50.29
60242;SHT30;46103;52.076;113.488;2024-01-06T05:41:09;-16.07;50.29
60242;SHT30;46103;52.076;113.488;2024-01-06T05:48:17;-15.97;50.88
60242;SHT30;46103;52.076;113.488;2024-01-06T05:51:36;-15.93;50.90
60242;SHT30;46103;52.076;113.488;2024-01-06T05:54:45;-15.89;51.07
60242;SHT30;46103;52.076;113.488;2024-01-06T05:57:57;-15.83;50.80
60242;SHT30;46103;52.076;113.488;2024-01-06T06:01:19;-15.71;50.62
60242;SHT30;46103;52.076;113.488;2024-01-06T06:08:06;-15.37;50.24
60242;SHT30;46103;52.076;113.488;2024-01-06T06:11:15;-15.22;49.95
60242;SHT30;46103;52.076;113.488;2024-01-06T06:14:47;-15.16;49.60
60242;SHT30;46103;52.076;113.488;2024-01-06T06:18:04;-15.16;49.72
60242;SHT30;46103;52.076;113.488;2024-01-06T06:24:57;-15.22;49.16
60242;SHT30;46103;52.076;113.488;2024-01-06T06:28:07;-15.10;49.24
60242;SHT30;46103;52.076;113.488;2024-01-06T06:31:17;-15.22;49.32
60242;SHT30;46103;52.076;113.488;2024-01-06T06:39:31;-15.38;49.45
60242;SHT30;46103;52.076;113.488;2024-01-06T06:43:41;-15.36;49.69
60242;SHT30;46103;52.076;113.488;2024-01-06T06:48:35;-15.19;49.54
60242;SHT30;46103;52.076;113.488;2024-01-06T06:53:08;-14.93;49.15
60242;SHT30;46103;52.076;113.488;2024-01-06T06:57:59;-14.68;48.73
60242;SHT30;46103;52.076;113.488;2024-01-06T07:02:12;-14.51;48.24
60242;SHT30;46103;52.076;113.488;2024-01-06T07:13:55;-14.50;48.43
60242;SHT30;46103;52.076;113.488;2024-01-06T08:21:16;-15.23;49.45
60242;SHT30;46103;52.076;113.488;2024-01-06T08:24:38;-15.57;50.52
60242;SHT30;46103;52.076;113.488;2024-01-06T08:27:49;-15.87;50.61
60242;SHT30;46103;52.076;113.488;2024-01-06T08:31:22;-16.33;50.81
60242;SHT30;46103;52.076;113.488;2024-01-06T08:38:00;-17.66;55.19
60242;SHT30;46103;52.076;113.488;2024-01-06T08:44:55;-18.32;56.62
60242;SHT30;46103;52.076;113.488;2024-01-06T08:49:07;-18.87;56.23
60242;SHT30;46103;52.076;113.488;2024-01-06T08:52:40;-19.12;57.36
60242;SHT30;46103;52.076;113.488;2024-01-06T08:56:11;-19.25;57.88
60242;SHT30;46103;52.076;113.488;2024-01-06T08:59:17;-19.15;57.72
60242;SHT30;46103;52.076;113.488;2024-01-06T09:02:53;-19.12;58.09
60242;SHT30;46103;52.076;113.488;2024-01-06T09:06:04;-19.07;57.81
60242;SHT30;46103;52.076;113.488;2024-01-06T09:09:14;-19.04;57.78
60242;SHT30;46103;52.076;113.488;2024-01-06T09:12:43;-19.04;57.73
60242;SHT30;46103;52.076;113.488;2024-01-06T09:16:08;-19.08;57.71
60242;SHT30;46103;52.076;113.488;2024-01-06T09:19:28;-19.18;57.90
60242;SHT30;46103;52.076;113.488;2024-01-06T09:22:56;-19.25;58.34
60242;SHT30;46103;52.076;113.488;2024-01-06T09:26:48;-19.26;58.96
60242;SHT30;46103;52.076;113.488;2024-01-06T09:30:06;-19.23;59.57
60242;SHT30;46103;52.076;113.488;2024-01-06T09:40:23;-19.16;59.48
60242;SHT30;46103;52.076;113.488;2024-01-06T09:43:57;-19.15;60.20
60242;SHT30;46103;52.076;113.488;2024-01-06T09:47:18;-19.16;60.51
60242;SHT30;46103;52.076;113.488;2024-01-06T09:54:35;-19.16;62.22
60242;SHT30;46103;52.076;113.488;2024-01-06T10:19:59;-19.65;62.41
60242;SHT30;46103;52.076;113.488;2024-01-06T10:23:32;-19.58;62.74
60242;SHT30;46103;52.076;113.488;2024-01-06T10:26:39;-19.65;61.88
60242;SHT30;46103;52.076;113.488;2024-01-06T10:29:45;-19.66;61.34
60242;SHT30;46103;52.076;113.488;2024-01-06T10:32:53;-19.67;61.04
60242;SHT30;46103;52.076;113.488;2024-01-06T10:36:00;-19.76;62.00
60242;SHT30;46103;52.076;113.488;2024-01-06T10:39:28;-19.83;62.88
60242;SHT30;46103;52.076;113.488;2024-01-06T10:42:43;-19.91;62.57
60242;SHT30;46103;52.076;113.488;2024-01-06T10:45:49;-19.98;63.75
60242;SHT30;46103;52.076;113.488;2024-01-06T10:48:55;-20.01;64.53
60242;SHT30;46103;52.076;113.488;2024-01-06T10:52:17;-20.09;65.01
60242;SHT30;46103;52.076;113.488;2024-01-06T10:55:38;-20.04;64.86
60242;SHT30;46103;52.076;113.488;2024-01-06T10:58:50;-20.17;63.65
60242;SHT30;46103;52.076;113.488;2024-01-06T11:02:13;-20.19;63.33
60242;SHT30;46103;52.076;113.488;2024-01-06T11:05:38;-20.39;62.47
60242;SHT30;46103;52.076;113.488;2024-01-06T11:12:31;-20.63;62.45
60242;SHT30;46103;52.076;113.488;2024-01-06T11:15:56;-20.64;62.75
60242;SHT30;46103;52.076;113.488;2024-01-06T11:19:08;-20.77;62.69
60242;SHT30;46103;52.076;113.488;2024-01-06T11:22:33;-20.80;63.38
60242;SHT30;46103;52.076;113.488;2024-01-06T11:29:30;-20.88;64.17
60242;SHT30;46103;52.076;113.488;2024-01-06T11:36:32;-21.06;64.10
60242;SHT30;46103;52.076;113.488;2024-01-06T11:54:59;-21.26;63.16
60242;SHT30;46103;52.076;113.488;2024-01-06T11:58:20;-21.27;63.35
60242;SHT30;46103;52.076;113.488;2024-01-06T12:17:03;-21.44;61.80
60242;SHT30;46103;52.076;113.488;2024-01-06T12:20:18;-21.60;62.34
60242;SHT30;46103;52.076;113.488;2024-01-06T12:23:27;-21.63;62.76
60242;SHT30;46103;52.076;113.488;2024-01-06T12:26:33;-21.64;63.25
60242;SHT30;46103;52.076;113.488;2024-01-06T12:29:40;-21.65;63.67
60242;SHT30;46103;52.076;113.488;2024-01-06T12:32:45;-21.71;63.95
60242;SHT30;46103;52.076;113.488;2024-01-06T12:35:50;-21.75;64.46
60242;SHT30;46103;52.076;113.488;2024-01-06T12:38:58;-21.74;64.61
60242;SHT30;46103;52.076;113.488;2024-01-06T12:42:04;-21.75;64.72
60242;SHT30;46103;52.076;113.488;2024-01-06T12:45:08;-21.88;63.80
60242;SHT30;46103;52.076;113.488;2024-01-06T12:48:17;-21.98;62.61
60242;SHT30;46103;52.076;113.488;2024-01-06T12:51:51;-22.08;61.68
60242;SHT30;46103;52.076;113.488;2024-01-06T12:55:10;-22.16;60.16
60242;SHT30;46103;52.076;113.488;2024-01-06T12:58:24;-22.29;59.19
60242;SHT30;46103;52.076;113.488;2024-01-06T13:01:43;-22.41;60.62
60242;SHT30;46103;52.076;113.488;2024-01-06T13:05:24;-22.53;61.11
60242;SHT30;46103;52.076;113.488;2024-01-06T13:08:33;-22.71;60.01
60242;SHT30;46103;52.076;113.488;2024-01-06T13:11:59;-22.72;61.58
60242;SHT30;46103;52.076;113.488;2024-01-06T13:15:11;-22.77;61.60
60242;SHT30;46103;52.076;113.488;2024-01-06T13:24:09;-22.99;61.39
60242;SHT30;46103;52.076;113.488;2024-01-06T13:27:36;-23.06;62.63
60242;SHT30;46103;52.076;113.488;2024-01-06T13:30:59;-23.15;62.55
60242;SHT30;46103;52.076;113.488;2024-01-06T13:34:02;-23.26;62.03
60242;SHT30;46103;52.076;113.488;2024-01-06T13:37:12;-23.23;61.83
60242;SHT30;46103;52.076;113.488;2024-01-06T14:06:22;-24.14;58.81
60242;SHT30;46103;52.076;113.488;2024-01-06T14:13:11;-24.35;58.11
60242;SHT30;46103;52.076;113.488;2024-01-06T14:24:14;-24.55;57.88
60242;SHT30;46103;52.076;113.488;2024-01-06T14:27:33;-24.63;58.01
60242;SHT30;46103;52.076;113.488;2024-01-06T14:30:41;-24.68;57.97
60242;SHT30;46103;52.076;113.488;2024-01-06T14:33:47;-24.75;57.72
60242;SHT30;46103;52.076;113.488;2024-01-06T14:37:07;-24.79;57.80
60242;SHT30;46103;52.076;113.488;2024-01-06T14:40:12;-24.90;57.80
60242;SHT30;46103;52.076;113.488;2024-01-06T14:43:16;-24.96;57.98
60242;SHT30;46103;52.076;113.488;2024-01-06T14:46:24;-24.97;58.11
60242;SHT30;46103;52.076;113.488;2024-01-06T14:49:42;-25.00;58.42
60242;SHT30;46103;52.076;113.488;2024-01-06T14:53:19;-24.99;58.92
60242;SHT30;46103;52.076;113.488;2024-01-06T15:00:08;-24.93;59.46
60242;SHT30;46103;52.076;113.488;2024-01-06T15:03:31;-24.93;60.13
60242;SHT30;46103;52.076;113.488;2024-01-06T15:06:55;-24.83;60.03
60242;SHT30;46103;52.076;113.488;2024-01-06T15:10:47;-24.84;59.45
60242;SHT30;46103;52.076;113.488;2024-01-06T15:17:52;-24.82;58.56
60242;SHT30;46103;52.076;113.488;2024-01-06T15:21:04;-24.82;58.85
60242;SHT30;46103;52.076;113.488;2024-01-06T15:24:25;-24.77;59.62
60242;SHT30;46103;52.076;113.488;2024-01-06T15:27:30;-24.72;59.56
60242;SHT30;46103;52.076;113.488;2024-01-06T15:30:36;-24.72;58.84
60242;SHT30;46103;52.076;113.488;2024-01-06T15:33:45;-24.76;58.11
60242;SHT30;46103;52.076;113.488;2024-01-06T15:36:57;-24.82;57.68
60242;SHT30;46103;52.076;113.488;2024-01-06T15:40:15;-24.83;57.68
60242;SHT30;46103;52.076;113.488;2024-01-06T15:46:42;-24.83;57.56
60242;SHT30;46103;52.076;113.488;2024-01-06T15:50:14;-24.83;57.45
60242;SHT30;46103;52.076;113.488;2024-01-06T15:53:28;-24.87;57.15
60242;SHT30;46103;52.076;113.488;2024-01-06T15:56:41;-24.93;57.22
60242;SHT30;46103;52.076;113.488;2024-01-06T16:03:50;-24.96;56.94
60242;SHT30;46103;52.076;113.488;2024-01-06T16:07:17;-24.91;56.56
60242;SHT30;46103;52.076;113.488;2024-01-06T16:10:31;-24.96;56.37
60242;SHT30;46103;52.076;113.488;2024-01-06T16:14:02;-25.04;56.54
60242;SHT30;46103;52.076;113.488;2024-01-06T16:17:51;-25.15;56.84
60242;SHT30;46103;52.076;113.488;2024-01-06T16:21:38;-25.21;57.31
60242;SHT30;46103;52.076;113.488;2024-01-06T16:25:02;-25.15;57.52
60242;SHT30;46103;52.076;113.488;2024-01-06T16:28:24;-25.20;57.12
60242;SHT30;46103;52.076;113.488;2024-01-06T16:31:38;-25.17;56.82
60242;SHT30;46103;52.076;113.488;2024-01-06T16:34:44;-25.18;56.73
60242;SHT30;46103;52.076;113.488;2024-01-06T16:37:51;-25.18;56.72
60242;SHT30;46103;52.076;113.488;2024-01-06T16:40:56;-25.17;56.21
60242;SHT30;46103;52.076;113.488;2024-01-06T16:44:02;-25.17;55.94
60242;SHT30;46103;52.076;113.488;2024-01-06T16:47:08;-25.18;55.61
60242;SHT30;46103;52.076;113.488;2024-01-06T16:50:17;-25.21;55.29
60242;SHT30;46103;52.076;113.488;2024-01-06T16:53:22;-25.24;54.88
60242;SHT30;46103;52.076;113.488;2024-01-06T16:56:27;-25.27;54.59
60242;SHT30;46103;52.076;113.488;2024-01-06T16:59:33;-25.30;54.46
60242;SHT30;46103;52.076;113.488;2024-01-06T17:02:44;-25.30;54.44
60242;SHT30;46103;52.076;113.488;2024-01-06T17:05:54;-25.35;54.28
60242;SHT30;46103;52.076;113.488;2024-01-06T17:09:01;-25.41;54.06
60242;SHT30;46103;52.076;113.488;2024-01-06T17:12:06;-25.43;53.85
60242;SHT30;46103;52.076;113.488;2024-01-06T17:15:12;-25.50;53.93
60242;SHT30;46103;52.076;113.488;2024-01-06T17:18:22;-25.55;53.88
60242;SHT30;46103;52.076;113.488;2024-01-06T17:21:31;-25.48;54.04
60242;SHT30;46103;52.076;113.488;2024-01-06T17:24:37;-25.41;54.00
60242;SHT30;46103;52.076;113.488;2024-01-06T17:27:41;-25.41;54.05
60242;SHT30;46103;52.076;113.488;2024-01-06T17:30:46;-25.35;54.49
60242;SHT30;46103;52.076;113.488;2024-01-06T17:33:54;-25.30;54.49
60242;SHT30;46103;52.076;113.488;2024-01-06T17:37:00;-25.27;54.42
60242;SHT30;46103;52.076;113.488;2024-01-06T17:40:06;-25.24;54.43
60242;SHT30;46103;52.076;113.488;2024-01-06T17:43:14;-25.27;54.41
60242;SHT30;46103;52.076;113.488;2024-01-06T17:46:19;-25.14;54.51
60242;SHT30;46103;52.076;113.488;2024-01-06T17:49:30;-25.08;54.30
60242;SHT30;46103;52.076;113.488;2024-01-06T17:52:36;-25.03;54.28
60242;SHT30;46103;52.076;113.488;2024-01-06T17:55:45;-24.97;54.07
60242;SHT30;46103;52.076;113.488;2024-01-06T17:58:56;-24.96;53.95
60242;SHT30;46103;52.076;113.488;2024-01-06T18:02:08;-24.93;53.75
60242;SHT30;46103;52.076;113.488;2024-01-06T18:05:20;-24.89;54.38
60242;SHT30;46103;52.076;113.488;2024-01-06T18:08:29;-24.90;54.63
60242;SHT30;46103;52.076;113.488;2024-01-06T18:11:40;-24.94;54.30
60242;SHT30;46103;52.076;113.488;2024-01-06T18:14:50;-25.04;53.75
60242;SHT30;46103;52.076;113.488;2024-01-06T18:18:01;-25.08;53.43
60242;SHT30;46103;52.076;113.488;2024-01-06T18:21:07;-25.10;53.46
60242;SHT30;46103;52.076;113.488;2024-01-06T18:24:13;-25.07;53.88
60242;SHT30;46103;52.076;113.488;2024-01-06T18:27:22;-25.08;53.91
60242;SHT30;46103;52.076;113.488;2024-01-06T18:30:33;-24.99;53.81
60242;SHT30;46103;52.076;113.488;2024-01-06T18:33:38;-24.99;53.62
60242;SHT30;46103;52.076;113.488;2024-01-06T18:36:43;-24.96;53.50
60242;SHT30;46103;52.076;113.488;2024-01-06T18:39:50;-24.94;53.17
60242;SHT30;46103;52.076;113.488;2024-01-06T18:42:57;-24.96;53.15
60242;SHT30;46103;52.076;113.488;2024-01-06T18:46:03;-24.97;53.19
60242;SHT30;46103;52.076;113.488;2024-01-06T18:49:10;-25.08;53.12
60242;SHT30;46103;52.076;113.488;2024-01-06T18:52:15;-25.08;53.22
60242;SHT30;46103;52.076;113.488;2024-01-06T18:55:20;-25.11;53.23
60242;SHT30;46103;52.076;113.488;2024-01-06T18:58:27;-25.12;53.12
60242;SHT30;46103;52.076;113.488;2024-01-06T19:01:32;-25.15;52.97
60242;SHT30;46103;52.076;113.488;2024-01-06T19:04:38;-25.17;52.92
60242;SHT30;46103;52.076;113.488;2024-01-06T19:07:44;-25.15;53.11
60242;SHT30;46103;52.076;113.488;2024-01-06T19:10:50;-25.08;53.18
60242;SHT30;46103;52.076;113.488;2024-01-06T19:13:54;-25.10;52.92
60242;SHT30;46103;52.076;113.488;2024-01-06T19:17:03;-25.14;52.84
60242;SHT30;46103;52.076;113.488;2024-01-06T19:20:09;-25.21;52.26
60242;SHT30;46103;52.076;113.488;2024-01-06T19:23:18;-25.24;52.23
60242;SHT30;46103;52.076;113.488;2024-01-06T19:26:23;-25.28;52.39
60242;SHT30;46103;52.076;113.488;2024-01-06T19:29:29;-25.32;52.41
60242;SHT30;46103;52.076;113.488;2024-01-06T19:32:34;-25.35;52.41
60242;SHT30;46103;52.076;113.488;2024-01-06T19:35:38;-25.41;52.56
60242;SHT30;46103;52.076;113.488;2024-01-06T19:38:42;-25.52;52.66
60242;SHT30;46103;52.076;113.488;2024-01-06T19:41:46;-25.49;53.04
60242;SHT30;46103;52.076;113.488;2024-01-06T19:44:52;-25.49;53.27
60242;SHT30;46103;52.076;113.488;2024-01-06T19:47:59;-25.45;53.69
60242;SHT30;46103;52.076;113.488;2024-01-06T19:51:04;-25.41;53.60
60242;SHT30;46103;52.076;113.488;2024-01-06T19:54:08;-25.32;53.55
60242;SHT30;46103;52.076;113.488;2024-01-06T19:57:13;-25.21;53.57
60242;SHT30;46103;52.076;113.488;2024-01-06T20:00:23;-25.17;53.47
60242;SHT30;46103;52.076;113.488;2024-01-06T20:03:27;-25.11;53.21
60242;SHT30;46103;52.076;113.488;2024-01-06T20:06:31;-25.11;53.16
60242;SHT30;46103;52.076;113.488;2024-01-06T20:09:37;-25.12;53.09
60242;SHT30;46103;52.076;113.488;2024-01-06T20:12:42;-25.10;52.90
60242;SHT30;46103;52.076;113.488;2024-01-06T20:15:47;-25.10;53.00
60242;SHT30;46103;52.076;113.488;2024-01-06T20:18:52;-25.11;52.98
60242;SHT30;46103;52.076;113.488;2024-01-06T20:21:56;-25.12;53.15
60242;SHT30;46103;52.076;113.488;2024-01-06T20:25:00;-25.14;53.34
60242;SHT30;46103;52.076;113.488;2024-01-06T20:28:04;-25.10;53.70
60242;SHT30;46103;52.076;113.488;2024-01-06T20:31:08;-25.07;53.75
60242;SHT30;46103;52.076;113.488;2024-01-06T20:34:14;-25.04;53.69
60242;SHT30;46103;52.076;113.488;2024-01-06T20:37:21;-25.04;53.78
60242;SHT30;46103;52.076;113.488;2024-01-06T20:40:31;-25.03;53.84
60242;SHT30;46103;52.076;113.488;2024-01-06T20:43:37;-25.10;53.53
60242;SHT30;46103;52.076;113.488;2024-01-06T20:46:40;-25.10;53.70
60242;SHT30;46103;52.076;113.488;2024-01-06T20:49:46;-25.07;53.74
60242;SHT30;46103;52.076;113.488;2024-01-06T20:52:53;-25.08;53.71
60242;SHT30;46103;52.076;113.488;2024-01-06T20:56:02;-25.11;53.73
60242;SHT30;46103;52.076;113.488;2024-01-06T20:59:07;-25.15;53.70
60242;SHT30;46103;52.076;113.488;2024-01-06T21:02:14;-25.17;54.10
60242;SHT30;46103;52.076;113.488;2024-01-06T21:05:20;-25.21;54.43
60242;SHT30;46103;52.076;113.488;2024-01-06T21:08:25;-25.18;54.75
60242;SHT30;46103;52.076;113.488;2024-01-06T21:11:43;-25.20;54.50
60242;SHT30;46103;52.076;113.488;2024-01-06T21:14:50;-25.20;54.34
60242;SHT30;46103;52.076;113.488;2024-01-06T21:17:56;-25.27;54.11
60242;SHT30;46103;52.076;113.488;2024-01-06T21:21:06;-25.28;54.29
60242;SHT30;46103;52.076;113.488;2024-01-06T21:24:21;-25.17;54.38
60242;SHT30;46103;52.076;113.488;2024-01-06T21:27:31;-25.12;54.50
60242;SHT30;46103;52.076;113.488;2024-01-06T21:30:37;-25.21;54.43
60242;SHT30;46103;52.076;113.488;2024-01-06T21:33:49;-25.15;54.68
60242;SHT30;46103;52.076;113.488;2024-01-06T21:36:54;-25.18;54.76
60242;SHT30;46103;52.076;113.488;2024-01-06T21:40:03;-25.10;55.00
60242;SHT30;46103;52.076;113.488;2024-01-06T21:43:12;-25.18;54.83
60242;SHT30;46103;52.076;113.488;2024-01-06T21:46:31;-25.20;55.24
60242;SHT30;46103;52.076;113.488;2024-01-06T21:49:37;-25.21;55.74
60242;SHT30;46103;52.076;113.488;2024-01-06T21:52:47;-25.17;56.40
60242;SHT30;46103;52.076;113.488;2024-01-06T21:55:52;-25.00;56.97
60242;SHT30;46103;52.076;113.488;2024-01-06T21:59:01;-24.89;56.85
60242;SHT30;46103;52.076;113.488;2024-01-06T22:02:06;-24.73;56.74
60242;SHT30;46103;52.076;113.488;2024-01-06T22:05:11;-24.61;56.06
60242;SHT30;46103;52.076;113.488;2024-01-06T22:08:19;-24.49;55.22
60242;SHT30;46103;52.076;113.488;2024-01-06T22:11:24;-24.38;54.66
60242;SHT30;46103;52.076;113.488;2024-01-06T22:14:29;-24.34;54.22
60242;SHT30;46103;52.076;113.488;2024-01-06T22:17:35;-24.31;53.98
60242;SHT30;46103;52.076;113.488;2024-01-06T22:20:40;-24.24;54.10
60242;SHT30;46103;52.076;113.488;2024-01-06T22:23:45;-24.18;54.00
60242;SHT30;46103;52.076;113.488;2024-01-06T22:26:49;-24.18;53.73
60242;SHT30;46103;52.076;113.488;2024-01-06T22:29:54;-24.27;53.50
60242;SHT30;46103;52.076;113.488;2024-01-06T22:32:59;-24.37;53.43
60242;SHT30;46103;52.076;113.488;2024-01-06T22:36:14;-24.47;53.44
60242;SHT30;46103;52.076;113.488;2024-01-06T22:39:21;-24.51;53.60
60242;SHT30;46103;52.076;113.488;2024-01-06T22:42:29;-24.51;53.77
60242;SHT30;46103;52.076;113.488;2024-01-06T22:45:34;-24.52;53.99
60242;SHT30;46103;52.076;113.488;2024-01-06T22:48:39;-24.41;54.17
60242;SHT30;46103;52.076;113.488;2024-01-06T22:51:45;-24.35;54.11
60242;SHT30;46103;52.076;113.488;2024-01-06T22:54:56;-24.33;53.93
60242;SHT30;46103;52.076;113.488;2024-01-06T22:58:01;-24.27;54.08
60242;SHT30;46103;52.076;113.488;2024-01-06T23:01:07;-24.21;54.38
60242;SHT30;46103;52.076;113.488;2024-01-06T23:04:13;-24.21;54.30
60242;SHT30;46103;52.076;113.488;2024-01-06T23:07:21;-24.17;54.24
60242;SHT30;46103;52.076;113.488;2024-01-06T23:10:29;-24.10;54.33
60242;SHT30;46103;52.076;113.488;2024-01-06T23:13:38;-24.00;54.48
60242;SHT30;46103;52.076;113.488;2024-01-06T23:16:42;-23.97;54.45
60242;SHT30;46103;52.076;113.488;2024-01-06T23:19:48;-23.95;54.10
60242;SHT30;46103;52.076;113.488;2024-01-06T23:22:53;-23.90;54.17
60242;SHT30;46103;52.076;113.488;2024-01-06T23:25:58;-23.86;54.14